createdAt,value
2022-12-05T00:01:29.006Z,2.70
2022-12-05T00:03:32.310Z,2.70
2022-12-05T00:05:35.795Z,2.70
2022-12-05T00:07:39.232Z,2.70
2022-12-05T00:09:44.208Z,2.70
2022-12-05T00:11:48.230Z,2.70
2022-12-05T00:13:53.356Z,2.70
2022-12-05T00:15:56.599Z,2.70
2022-12-05T00:17:59.833Z,2.70
2022-12-05T00:20:03.399Z,2.70
2022-12-05T00:22:06.899Z,2.70
2022-12-05T00:24:13.076Z,2.70
2022-12-05T00:26:18.056Z,2.70
2022-12-05T00:28:21.608Z,2.70
2022-12-05T00:30:24.796Z,2.70
2022-12-05T00:32:30.101Z,2.70
2022-12-05T00:34:33.322Z,2.70
2022-12-05T00:36:37.837Z,2.70
2022-12-05T00:38:42.351Z,2.80
2022-12-05T00:40:45.550Z,2.80
2022-12-05T00:42:52.428Z,2.70
2022-12-05T00:44:55.913Z,2.70
2022-12-05T00:46:59.199Z,2.70
2022-12-05T00:49:03.722Z,2.80
2022-12-05T00:51:09.372Z,2.70
2022-12-05T00:53:12.835Z,2.80
2022-12-05T00:55:16.362Z,2.80
2022-12-05T00:57:19.662Z,2.70
2022-12-05T00:59:24.781Z,2.70
2022-12-05T01:01:30.647Z,2.60
2022-12-05T01:03:33.962Z,2.70
2022-12-05T01:05:37.460Z,2.70
2022-12-05T01:07:40.835Z,2.70
2022-12-05T01:09:44.113Z,2.70
2022-12-05T01:11:47.547Z,2.70
2022-12-05T01:13:51.970Z,2.70
2022-12-05T01:15:56.895Z,2.70
2022-12-05T01:18:00.247Z,2.70
2022-12-05T01:20:03.754Z,2.70
2022-12-05T01:22:07.005Z,2.80
2022-12-05T01:24:11.033Z,2.70
2022-12-05T01:26:19.427Z,2.70
2022-12-05T01:28:23.062Z,2.70
2022-12-05T01:30:26.314Z,2.70
2022-12-05T01:32:30.951Z,2.70
2022-12-05T01:34:34.238Z,2.70
2022-12-05T01:36:39.338Z,2.70
2022-12-05T01:38:44.094Z,2.70
2022-12-05T01:40:47.411Z,2.70
2022-12-05T01:42:50.718Z,2.70
2022-12-05T01:45:09.878Z,2.70
2022-12-05T01:47:13.161Z,2.70
2022-12-05T01:49:20.669Z,2.70
2022-12-05T01:51:25.254Z,2.70
2022-12-05T01:53:29.742Z,2.70
2022-12-05T01:55:34.728Z,2.60
2022-12-05T01:57:39.007Z,2.70
2022-12-05T01:59:45.679Z,2.70
2022-12-05T02:01:49.106Z,2.70
2022-12-05T02:03:57.172Z,2.70
2022-12-05T02:06:02.922Z,2.70
2022-12-05T02:08:08.558Z,2.70
2022-12-05T02:10:12.344Z,2.70
2022-12-05T02:12:15.636Z,2.80
2022-12-05T02:14:29.730Z,2.70
2022-12-05T02:16:44.459Z,2.70
2022-12-05T02:18:56.639Z,2.70
2022-12-05T02:21:16.232Z,2.70
2022-12-05T02:23:58.456Z,2.60
2022-12-05T02:26:49.558Z,2.70
2022-12-05T02:29:17.181Z,2.70
2022-12-05T02:31:28.631Z,2.60
2022-12-05T02:33:36.807Z,2.70
2022-12-05T02:35:49.371Z,2.70
2022-12-05T02:38:00.132Z,2.70
2022-12-05T02:40:11.517Z,2.70
2022-12-05T02:42:22.731Z,2.70
2022-12-05T02:44:32.790Z,2.70
2022-12-05T02:46:40.174Z,2.70
2022-12-05T02:48:47.246Z,2.80
2022-12-05T02:50:52.030Z,2.80
2022-12-05T02:52:59.807Z,2.70
2022-12-05T02:55:04.961Z,2.80
2022-12-05T02:57:09.782Z,2.80
2022-12-05T02:59:14.388Z,2.80
2022-12-05T03:01:21.395Z,2.70
2022-12-05T03:03:27.847Z,2.70
2022-12-05T03:05:40.199Z,2.70
2022-12-05T03:07:48.142Z,2.70
2022-12-05T03:09:57.920Z,2.70
2022-12-05T03:12:07.993Z,2.70
2022-12-05T03:14:16.298Z,2.70
2022-12-05T03:16:24.364Z,2.70
2022-12-05T03:18:32.562Z,2.70
2022-12-05T03:20:39.970Z,2.70
2022-12-05T03:22:47.562Z,2.70
2022-12-05T03:24:51.287Z,2.70
2022-12-05T03:27:08.574Z,2.70
2022-12-05T03:29:23.643Z,2.70
2022-12-05T03:31:36.456Z,2.70
2022-12-05T03:33:45.056Z,2.60
2022-12-05T03:36:00.679Z,2.70
2022-12-05T03:38:09.982Z,2.70
2022-12-05T03:40:22.689Z,2.60
2022-12-05T03:42:32.540Z,2.60
2022-12-05T03:44:43.912Z,2.60
2022-12-05T03:46:53.765Z,2.60
2022-12-05T03:49:06.874Z,2.60
2022-12-05T03:51:14.875Z,2.60
2022-12-05T03:53:23.739Z,2.60
2022-12-05T03:55:30.537Z,2.60
2022-12-05T03:57:39.182Z,2.70
2022-12-05T03:59:46.547Z,2.70
2022-12-05T04:01:51.820Z,2.70
2022-12-05T04:03:59.533Z,2.70
2022-12-05T04:06:05.348Z,2.70
2022-12-05T04:08:14.079Z,2.70
2022-12-05T04:10:22.490Z,2.70
2022-12-05T04:12:29.530Z,2.70
2022-12-05T04:14:38.607Z,2.70
2022-12-05T04:17:02.427Z,2.70
2022-12-05T04:19:12.412Z,2.70
2022-12-05T04:21:35.655Z,2.70
2022-12-05T04:23:41.451Z,2.70
2022-12-05T04:26:02.440Z,2.80
2022-12-05T04:28:21.694Z,2.80
2022-12-05T04:30:27.346Z,2.80
2022-12-05T04:32:36.494Z,2.70
2022-12-05T04:34:46.315Z,2.70
2022-12-05T04:36:56.131Z,2.70
2022-12-05T04:39:05.551Z,2.70
2022-12-05T04:41:14.166Z,2.70
2022-12-05T04:43:20.017Z,2.70
2022-12-05T04:45:26.734Z,2.70
2022-12-05T04:47:33.288Z,2.70
2022-12-05T04:49:38.182Z,2.70
2022-12-05T04:51:44.788Z,2.70
2022-12-05T04:53:54.806Z,2.70
2022-12-05T04:56:01.470Z,2.70
2022-12-05T04:58:09.155Z,2.70
2022-12-05T05:00:13.274Z,2.70
2022-12-05T05:02:22.924Z,2.70
2022-12-05T05:04:31.263Z,2.70
2022-12-05T05:06:34.909Z,2.70
2022-12-05T05:08:48.454Z,2.70
2022-12-05T05:11:01.988Z,2.70
2022-12-05T05:13:05.383Z,2.70
2022-12-05T05:15:09.578Z,2.70
2022-12-05T05:17:12.965Z,2.70
2022-12-05T05:19:16.311Z,2.60
2022-12-05T05:21:22.367Z,2.60
2022-12-05T05:23:26.013Z,2.60
2022-12-05T05:25:30.630Z,2.60
2022-12-05T05:27:33.859Z,2.60
2022-12-05T05:29:37.102Z,2.50
2022-12-05T05:31:41.076Z,2.60
2022-12-05T05:33:45.016Z,2.60
2022-12-05T05:35:48.720Z,2.60
2022-12-05T05:37:52.059Z,2.60
2022-12-05T05:39:55.862Z,2.70
2022-12-05T05:42:00.707Z,2.70
2022-12-05T05:44:05.253Z,2.70
2022-12-05T05:46:08.517Z,2.60
2022-12-05T05:48:12.082Z,2.60
2022-12-05T05:50:21.522Z,2.60
2022-12-05T05:52:25.095Z,2.60
2022-12-05T05:54:28.379Z,2.60
2022-12-05T05:56:31.696Z,2.50
2022-12-05T05:58:37.492Z,2.50
2022-12-05T06:00:40.698Z,2.50
2022-12-05T06:02:44.124Z,2.50
2022-12-05T06:04:47.579Z,2.50
2022-12-05T06:06:50.782Z,2.50
2022-12-05T06:08:54.720Z,2.50
2022-12-05T06:10:58.335Z,2.60
2022-12-05T06:13:02.228Z,2.60
2022-12-05T06:15:08.631Z,2.60
2022-12-05T06:17:11.918Z,2.60
2022-12-05T06:19:15.536Z,2.60
2022-12-05T06:21:18.840Z,2.60
2022-12-05T06:23:22.243Z,2.60
2022-12-05T06:25:25.591Z,2.60
2022-12-05T06:27:31.441Z,2.60
2022-12-05T06:29:35.866Z,2.60
2022-12-05T06:31:40.633Z,2.50
2022-12-05T06:33:44.215Z,2.60
2022-12-05T06:35:47.676Z,2.50
2022-12-05T06:37:51.079Z,2.50
2022-12-05T06:39:54.297Z,2.60
2022-12-05T06:41:57.854Z,2.60
2022-12-05T06:44:02.582Z,2.60
2022-12-05T06:46:07.192Z,2.70
2022-12-05T06:48:11.932Z,2.80
2022-12-05T06:50:15.210Z,2.90
2022-12-05T06:52:18.455Z,2.80
2022-12-05T06:54:22.568Z,2.90
2022-12-05T06:56:25.839Z,2.90
2022-12-05T06:58:29.760Z,2.90
2022-12-05T07:00:50.349Z,2.90
2022-12-05T07:02:53.885Z,2.90
2022-12-05T07:04:58.632Z,2.90
2022-12-05T07:07:02.903Z,2.90
2022-12-05T07:09:07.238Z,2.90
2022-12-05T07:11:10.442Z,3.00
2022-12-05T07:13:15.820Z,3.00
2022-12-05T07:15:19.299Z,3.00
2022-12-05T07:17:23.534Z,3.10
2022-12-05T07:19:26.865Z,3.00
2022-12-05T07:21:32.626Z,3.10
2022-12-05T07:23:36.266Z,3.10
2022-12-05T07:25:41.584Z,3.10
2022-12-05T07:27:44.767Z,3.10
2022-12-05T07:29:48.130Z,3.10
2022-12-05T07:31:51.427Z,3.00
2022-12-05T07:33:54.782Z,3.00
2022-12-05T07:36:02.107Z,3.00
2022-12-05T07:38:06.843Z,3.10
2022-12-05T07:40:11.336Z,3.20
2022-12-05T07:42:14.734Z,3.40
2022-12-05T07:44:18.331Z,3.50
2022-12-05T07:46:22.354Z,3.40
2022-12-05T07:48:25.740Z,3.50
2022-12-05T07:50:29.394Z,3.60
2022-12-05T07:52:32.535Z,3.60
2022-12-05T07:54:37.567Z,3.80
2022-12-05T07:56:44.758Z,3.90
2022-12-05T07:58:51.542Z,3.90
2022-12-05T08:00:54.839Z,3.90
2022-12-05T08:03:02.604Z,4.00
2022-12-05T08:05:06.581Z,4.00
2022-12-05T08:07:11.552Z,4.00
2022-12-05T08:09:15.111Z,4.00
2022-12-05T08:11:22.766Z,4.00
2022-12-05T08:13:26.144Z,4.00
2022-12-05T08:15:30.173Z,3.90
2022-12-05T08:17:33.630Z,4.00
2022-12-05T08:19:36.963Z,4.00
2022-12-05T08:21:40.218Z,4.10
2022-12-05T08:23:44.438Z,4.00
2022-12-05T08:25:47.676Z,4.20
2022-12-05T08:27:52.236Z,4.10
2022-12-05T08:29:56.102Z,4.10
2022-12-05T08:31:59.946Z,4.10
2022-12-05T08:34:03.457Z,4.20
2022-12-05T08:36:09.011Z,4.20
2022-12-05T08:38:12.226Z,4.10
2022-12-05T08:40:15.487Z,4.20
2022-12-05T08:42:18.919Z,4.30
2022-12-05T08:44:23.635Z,4.40
2022-12-05T08:46:27.167Z,4.40
2022-12-05T08:48:32.531Z,4.40
2022-12-05T08:50:35.767Z,4.30
2022-12-05T08:52:39.266Z,4.40
2022-12-05T08:54:42.557Z,4.40
2022-12-05T08:56:45.941Z,4.40
2022-12-05T08:58:49.945Z,4.30
2022-12-05T09:00:54.645Z,4.40
2022-12-05T09:02:58.078Z,4.40
2022-12-05T09:05:13.656Z,4.50
2022-12-05T09:07:24.664Z,4.50
2022-12-05T09:09:27.935Z,4.40
2022-12-05T09:11:33.594Z,4.40
2022-12-05T09:13:37.498Z,4.50
2022-12-05T09:15:40.818Z,4.40
2022-12-05T09:17:45.821Z,4.50
2022-12-05T09:19:53.167Z,4.60
2022-12-05T09:21:57.227Z,4.60
2022-12-05T09:24:01.444Z,4.60
2022-12-05T09:26:05.381Z,4.50
2022-12-05T09:28:08.987Z,4.70
2022-12-05T09:30:12.890Z,4.70
2022-12-05T09:32:16.066Z,4.60
2022-12-05T09:34:21.232Z,4.80
2022-12-05T09:36:26.331Z,4.90
2022-12-05T09:38:30.090Z,4.90
2022-12-05T09:40:33.347Z,5.10
2022-12-05T09:43:00.010Z,5.10
2022-12-05T09:45:25.570Z,5.10
2022-12-05T09:47:39.820Z,5.00
2022-12-05T09:49:52.590Z,5.00
2022-12-05T09:51:57.055Z,5.00
2022-12-05T09:54:00.398Z,5.00
2022-12-05T09:56:07.287Z,4.90
2022-12-05T09:58:22.587Z,5.00
2022-12-05T10:00:27.773Z,5.10
2022-12-05T10:02:46.621Z,4.90
2022-12-05T10:05:00.920Z,4.90
2022-12-05T10:07:12.147Z,5.00
2022-12-05T10:09:43.808Z,4.90
2022-12-05T10:11:52.786Z,5.00
2022-12-05T10:14:04.725Z,5.10
2022-12-05T10:16:13.929Z,5.20
2022-12-05T10:18:29.452Z,5.30
2022-12-05T10:20:37.607Z,5.40
2022-12-05T10:22:44.938Z,5.30
2022-12-05T10:24:53.939Z,5.40
2022-12-05T10:27:03.859Z,5.40
2022-12-05T10:29:20.749Z,5.30
2022-12-05T10:31:30.419Z,5.40
2022-12-05T10:33:40.020Z,5.40
2022-12-05T10:35:45.056Z,5.40
2022-12-05T10:37:58.398Z,5.50
2022-12-05T10:40:01.661Z,5.40
2022-12-05T10:42:05.711Z,5.50
2022-12-05T10:44:09.830Z,5.30
2022-12-05T10:46:17.296Z,5.30
2022-12-05T10:48:22.633Z,5.30
2022-12-05T10:50:30.372Z,5.40
2022-12-05T10:52:36.388Z,5.60
2022-12-05T10:54:45.855Z,5.50
2022-12-05T10:56:50.821Z,5.50
2022-12-05T10:58:57.136Z,5.50
2022-12-05T11:01:13.325Z,5.50
2022-12-05T11:03:39.414Z,5.40
2022-12-05T11:05:42.874Z,5.50
2022-12-05T11:07:49.887Z,5.60
2022-12-05T11:09:54.094Z,5.60
2022-12-05T11:12:17.239Z,5.60
2022-12-05T11:14:24.924Z,5.70
2022-12-05T11:16:32.981Z,5.60
2022-12-05T11:18:36.683Z,5.50
2022-12-05T11:20:41.879Z,5.60
2022-12-05T11:22:48.857Z,5.50
2022-12-05T11:24:53.713Z,5.50
2022-12-05T11:26:57.623Z,5.30
2022-12-05T11:29:00.897Z,5.20
2022-12-05T11:31:08.780Z,5.30
2022-12-05T11:33:22.292Z,5.20
2022-12-05T11:35:27.878Z,5.20
2022-12-05T11:37:35.410Z,5.10
2022-12-05T11:39:38.790Z,5.00
2022-12-05T11:42:17.192Z,5.00
2022-12-05T11:44:33.551Z,5.10
2022-12-05T11:46:47.539Z,5.00
2022-12-05T11:49:04.628Z,5.00
2022-12-05T11:51:20.003Z,5.00
2022-12-05T11:53:48.485Z,5.10
2022-12-05T11:55:55.197Z,5.20
2022-12-05T11:58:30.002Z,5.30
2022-12-05T12:00:44.719Z,5.40
2022-12-05T12:03:16.544Z,5.40
2022-12-05T12:05:25.513Z,5.50
2022-12-05T12:07:48.174Z,5.70
2022-12-05T12:10:13.213Z,5.80
2022-12-05T12:12:27.740Z,5.80
2022-12-05T12:14:40.684Z,5.90
2022-12-05T12:16:54.187Z,5.80
2022-12-05T12:19:15.322Z,5.70
2022-12-05T12:21:20.694Z,5.60
2022-12-05T12:23:44.429Z,5.50
2022-12-05T12:26:07.812Z,5.50
2022-12-05T12:28:24.825Z,5.70
2022-12-05T12:30:37.449Z,5.70
2022-12-05T12:32:52.235Z,5.60
2022-12-05T12:35:36.744Z,5.60
2022-12-05T12:37:51.522Z,5.50
2022-12-05T12:40:05.850Z,5.30
2022-12-05T12:42:21.783Z,5.20
2022-12-05T12:45:02.327Z,5.00
2022-12-05T12:47:09.935Z,5.00
2022-12-05T12:49:35.086Z,5.00
2022-12-05T12:51:46.142Z,5.00
2022-12-05T12:54:47.043Z,5.10
2022-12-05T12:56:56.738Z,5.00
2022-12-05T12:59:10.787Z,5.00
2022-12-05T13:01:25.264Z,5.10
2022-12-05T13:03:36.528Z,5.20
2022-12-05T13:05:47.844Z,5.20
2022-12-05T13:07:55.552Z,5.20
2022-12-05T13:10:03.434Z,5.20
2022-12-05T13:12:11.682Z,5.20
2022-12-05T13:14:20.913Z,5.10
2022-12-05T13:16:27.889Z,5.10
2022-12-05T13:18:31.592Z,5.00
2022-12-05T13:20:37.849Z,5.00
2022-12-05T13:22:45.639Z,5.00
2022-12-05T13:24:51.100Z,4.90
2022-12-05T13:26:54.995Z,4.90
2022-12-05T13:29:00.833Z,4.90
2022-12-05T13:31:05.886Z,4.90
2022-12-05T13:33:11.964Z,4.90
2022-12-05T13:35:38.874Z,5.00
2022-12-05T13:38:06.746Z,4.90
2022-12-05T13:40:43.432Z,4.80
2022-12-05T13:42:48.189Z,4.80
2022-12-05T13:44:55.107Z,4.70
2022-12-05T13:46:58.434Z,4.70
2022-12-05T13:49:07.156Z,4.70
2022-12-05T13:51:15.843Z,4.60
2022-12-05T13:53:30.278Z,4.50
2022-12-05T13:55:40.071Z,4.50
2022-12-05T13:57:56.353Z,4.50
2022-12-05T14:00:05.002Z,4.60
2022-12-05T14:02:53.961Z,4.50
2022-12-05T14:04:57.210Z,4.40
2022-12-05T14:07:01.086Z,4.30
2022-12-05T14:09:26.333Z,4.30
2022-12-05T14:11:29.802Z,4.30
2022-12-05T14:13:45.252Z,4.50
2022-12-05T14:15:49.774Z,4.40
2022-12-05T14:17:58.594Z,4.40
2022-12-05T14:20:20.213Z,4.30
2022-12-05T14:22:59.693Z,4.30
2022-12-05T14:25:12.786Z,4.30
2022-12-05T14:27:27.132Z,4.20
2022-12-05T14:29:48.841Z,4.20
2022-12-05T14:32:05.392Z,4.20
2022-12-05T14:34:21.026Z,4.20
2022-12-05T14:36:31.068Z,4.20
2022-12-05T14:38:37.850Z,4.20
2022-12-05T14:40:45.021Z,4.20
2022-12-05T14:42:55.707Z,4.10
2022-12-05T14:45:02.974Z,4.10
2022-12-05T14:47:08.205Z,4.10
2022-12-05T14:49:39.111Z,4.00
2022-12-05T14:51:56.875Z,4.10
2022-12-05T14:54:05.793Z,4.00
2022-12-05T14:56:20.707Z,4.00
2022-12-05T14:58:36.289Z,4.00
2022-12-05T15:00:42.644Z,4.00
2022-12-05T15:02:52.742Z,4.00
2022-12-05T15:05:00.349Z,4.00
2022-12-05T15:07:05.677Z,3.90
2022-12-05T15:09:37.445Z,4.00
2022-12-05T15:11:42.990Z,4.00
2022-12-05T15:13:46.623Z,4.00
2022-12-05T15:16:01.673Z,3.90
2022-12-05T15:18:15.165Z,3.90
2022-12-05T15:20:25.741Z,3.90
2022-12-05T15:22:30.982Z,3.90
2022-12-05T15:24:39.279Z,3.90
2022-12-05T15:26:48.910Z,3.90
2022-12-05T15:29:04.075Z,3.90
2022-12-05T15:31:13.230Z,4.00
2022-12-05T15:33:16.504Z,3.90
2022-12-05T15:35:21.232Z,3.90
2022-12-05T15:37:32.903Z,4.00
2022-12-05T15:39:54.010Z,4.10
2022-12-05T15:41:59.143Z,4.00
2022-12-05T15:44:02.546Z,4.00
2022-12-05T15:46:10.450Z,3.90
2022-12-05T15:48:19.779Z,3.90
2022-12-05T15:50:38.310Z,3.90
2022-12-05T15:52:45.085Z,3.90
2022-12-05T15:54:49.502Z,4.00
2022-12-05T15:56:57.413Z,3.90
2022-12-05T15:59:06.937Z,3.90
2022-12-05T16:01:14.403Z,4.00
2022-12-05T16:03:22.952Z,3.90
2022-12-05T16:05:30.365Z,3.90
2022-12-05T16:07:35.904Z,3.90
2022-12-05T16:09:43.079Z,4.00
2022-12-05T16:11:54.749Z,3.90
2022-12-05T16:14:00.372Z,3.90
2022-12-05T16:16:07.718Z,3.90
2022-12-05T16:18:27.131Z,3.90
2022-12-05T16:20:32.367Z,3.90
2022-12-05T16:22:36.373Z,3.90
2022-12-05T16:24:46.450Z,3.80
2022-12-05T16:26:59.794Z,3.80
2022-12-05T16:29:04.269Z,3.80
2022-12-05T16:31:09.241Z,3.80
2022-12-05T16:33:16.785Z,3.80
2022-12-05T16:35:45.578Z,3.80
2022-12-05T16:37:49.138Z,3.80
2022-12-05T16:39:52.970Z,3.80
2022-12-05T16:41:57.024Z,3.80
2022-12-05T16:44:00.267Z,3.80
2022-12-05T16:46:41.764Z,3.80
2022-12-05T16:48:48.728Z,3.90
2022-12-05T16:50:53.763Z,3.90
2022-12-05T16:53:22.240Z,3.90
2022-12-05T16:55:26.199Z,3.80
2022-12-05T16:57:29.838Z,3.90
2022-12-05T16:59:35.613Z,3.90
2022-12-05T17:01:39.439Z,3.90
2022-12-05T17:03:42.961Z,3.80
2022-12-05T17:05:47.785Z,3.80
2022-12-05T17:07:50.985Z,3.80
2022-12-05T17:09:54.397Z,3.80
2022-12-05T17:12:04.553Z,3.90
2022-12-05T17:14:12.717Z,3.80
2022-12-05T17:16:20.558Z,3.90
2022-12-05T17:18:29.608Z,3.80
2022-12-05T17:20:44.607Z,3.80
2022-12-05T17:22:49.918Z,3.90
2022-12-05T17:24:53.403Z,3.90
2022-12-05T17:26:56.626Z,3.90
2022-12-05T17:29:00.053Z,3.90
2022-12-05T17:31:03.498Z,3.90
2022-12-05T17:33:07.140Z,3.80
2022-12-05T17:35:16.154Z,3.90
2022-12-05T17:37:19.371Z,3.90
2022-12-05T17:39:28.381Z,3.90
2022-12-05T17:41:32.142Z,3.90
2022-12-05T17:43:35.433Z,3.80
2022-12-05T17:45:38.615Z,3.80
2022-12-05T17:47:42.491Z,3.90
2022-12-05T17:49:46.009Z,3.80
2022-12-05T17:54:12.812Z,3.90
2022-12-05T17:56:17.841Z,3.90
2022-12-05T17:58:21.352Z,3.90
2022-12-05T18:00:25.510Z,3.90
2022-12-05T18:02:28.699Z,3.90
2022-12-05T18:04:31.949Z,3.90
2022-12-05T18:06:35.315Z,3.90
2022-12-05T18:08:40.102Z,3.90
2022-12-05T18:10:44.157Z,3.90
2022-12-05T18:12:49.579Z,3.90
2022-12-05T18:14:52.730Z,3.90
2022-12-05T18:16:56.501Z,4.00
2022-12-05T18:19:00.098Z,3.90
2022-12-05T18:21:08.286Z,4.00
2022-12-05T18:23:11.938Z,4.00
2022-12-05T18:25:15.680Z,4.00
2022-12-05T18:27:19.487Z,3.90
2022-12-05T18:29:24.418Z,3.90
2022-12-05T18:31:27.927Z,3.90
2022-12-05T18:33:32.102Z,3.90
2022-12-05T18:35:44.155Z,3.90
2022-12-05T18:37:47.403Z,3.90
2022-12-05T18:39:50.686Z,3.90
2022-12-05T18:41:54.396Z,3.90
2022-12-05T18:43:58.111Z,3.90
2022-12-05T18:46:04.782Z,3.80
2022-12-05T18:48:37.637Z,3.90
2022-12-05T18:50:31.312Z,3.90
2022-12-05T18:52:36.476Z,3.90
2022-12-05T18:54:39.981Z,3.90
2022-12-05T18:56:45.862Z,3.90
2022-12-05T18:58:55.324Z,3.90
2022-12-05T19:01:08.251Z,3.90
2022-12-05T19:03:11.510Z,3.90
2022-12-05T19:05:14.828Z,3.90
2022-12-05T19:07:18.311Z,3.90
2022-12-05T19:09:23.587Z,3.80
2022-12-05T19:11:27.846Z,3.80
2022-12-05T19:13:31.119Z,3.80
2022-12-05T19:15:34.630Z,3.90
2022-12-05T19:17:39.326Z,3.90
2022-12-05T19:19:42.574Z,3.90
2022-12-05T19:21:46.731Z,3.90
2022-12-05T19:23:50.038Z,3.90
2022-12-05T19:25:57.225Z,3.90
2022-12-05T19:28:00.457Z,3.90
2022-12-05T19:30:08.133Z,3.90
2022-12-05T19:32:13.455Z,3.90
2022-12-05T19:34:18.425Z,4.00
2022-12-05T19:36:23.671Z,3.90
2022-12-05T19:38:27.230Z,4.00
2022-12-05T19:40:30.517Z,4.00
2022-12-05T19:42:34.004Z,3.90
2022-12-05T19:44:37.294Z,3.90
2022-12-05T19:46:40.726Z,3.90
2022-12-05T19:48:44.287Z,4.00
2022-12-05T19:50:54.803Z,4.00
2022-12-05T19:52:58.469Z,4.00
2022-12-05T19:55:01.692Z,3.90
2022-12-05T19:57:05.050Z,3.90
2022-12-05T19:59:08.603Z,3.90
2022-12-05T20:01:14.371Z,4.00
2022-12-05T20:03:17.680Z,3.90
2022-12-05T20:05:20.931Z,4.00
2022-12-05T20:07:25.574Z,3.90
2022-12-05T20:09:29.249Z,3.90
2022-12-05T20:11:32.667Z,3.90
2022-12-05T20:13:45.898Z,3.90
2022-12-05T20:15:50.370Z,3.90
2022-12-05T20:17:53.630Z,3.90
2022-12-05T20:19:58.883Z,4.00
2022-12-05T20:22:02.323Z,3.90
2022-12-05T20:24:11.461Z,3.90
2022-12-05T20:26:17.463Z,3.90
2022-12-05T20:28:21.023Z,3.90
2022-12-05T20:30:24.296Z,3.90
2022-12-05T20:32:27.558Z,3.90
2022-12-05T20:34:30.897Z,3.90
2022-12-05T20:36:36.050Z,4.00
2022-12-05T20:38:40.335Z,3.90
2022-12-05T20:40:45.138Z,3.90
2022-12-05T20:42:49.901Z,3.90
2022-12-05T20:44:53.197Z,3.90
2022-12-05T20:46:56.731Z,3.90
2022-12-05T20:49:00.638Z,3.90
2022-12-05T20:51:08.058Z,3.90
2022-12-05T20:53:15.767Z,3.90
2022-12-05T20:55:24.649Z,3.90
2022-12-05T20:57:29.491Z,3.90
2022-12-05T20:59:32.787Z,4.00
2022-12-05T21:01:37.811Z,4.00
2022-12-05T21:03:42.643Z,4.00
2022-12-05T21:05:45.933Z,4.00
2022-12-05T21:07:49.250Z,3.90
2022-12-05T21:09:52.629Z,3.90
2022-12-05T21:11:56.077Z,3.90
2022-12-05T21:14:04.853Z,3.90
2022-12-05T21:16:10.704Z,3.90
2022-12-05T21:18:13.993Z,3.90
2022-12-05T21:20:17.297Z,3.90
2022-12-05T21:22:20.541Z,3.90
2022-12-05T21:24:24.039Z,3.80
2022-12-05T21:26:29.292Z,3.80
2022-12-05T21:28:33.281Z,3.70
2022-12-05T21:30:38.095Z,3.70
2022-12-05T21:32:41.329Z,3.60
2022-12-05T21:34:44.548Z,3.60
2022-12-05T21:36:48.728Z,3.60
2022-12-05T21:38:56.030Z,3.50
2022-12-05T21:41:01.106Z,3.50
2022-12-05T21:43:04.318Z,3.50
2022-12-05T21:45:08.347Z,3.40
2022-12-05T21:47:13.039Z,3.50
2022-12-05T21:49:16.666Z,3.40
2022-12-05T21:51:21.975Z,3.40
2022-12-05T21:53:25.450Z,3.40
2022-12-05T21:55:28.849Z,3.40
2022-12-05T21:57:32.657Z,3.50
2022-12-05T21:59:35.914Z,3.50
2022-12-05T22:01:39.472Z,3.40
2022-12-05T22:03:44.567Z,3.40
2022-12-05T22:05:49.396Z,3.40
2022-12-05T22:07:52.868Z,3.50
2022-12-05T22:09:56.308Z,3.50
2022-12-05T22:11:59.974Z,3.50
2022-12-05T22:14:03.267Z,3.40
2022-12-05T22:16:07.827Z,3.40
2022-12-05T22:18:12.202Z,3.40
2022-12-05T22:20:16.920Z,3.40
2022-12-05T22:22:20.313Z,3.40
2022-12-05T22:24:23.762Z,3.40
2022-12-05T22:26:28.084Z,3.40
2022-12-05T22:28:31.843Z,3.40
2022-12-05T22:30:35.218Z,3.40
2022-12-05T22:32:38.532Z,3.40
2022-12-05T22:34:41.900Z,3.40
2022-12-05T22:36:46.520Z,3.50
2022-12-05T22:38:50.012Z,3.50
2022-12-05T22:40:56.539Z,3.50
2022-12-05T22:42:59.869Z,3.50
2022-12-05T22:45:03.178Z,3.50
2022-12-05T22:47:06.461Z,3.50
2022-12-05T22:49:11.690Z,3.50
2022-12-05T22:51:15.883Z,3.50
2022-12-05T22:53:22.043Z,3.40
2022-12-05T22:55:25.329Z,3.50
2022-12-05T22:57:28.651Z,3.50
2022-12-05T22:59:32.216Z,3.40
2022-12-05T23:01:36.551Z,3.50
2022-12-05T23:03:40.542Z,3.40
2022-12-05T23:05:45.397Z,3.40
2022-12-05T23:07:48.683Z,3.40
2022-12-05T23:09:53.413Z,3.40
2022-12-05T23:11:56.995Z,3.40
2022-12-05T23:14:02.604Z,3.40
2022-12-05T23:16:10.521Z,3.50
2022-12-05T23:18:16.019Z,3.40
2022-12-05T23:20:19.577Z,3.40
2022-12-05T23:22:22.879Z,3.40
2022-12-05T23:24:26.075Z,3.40
2022-12-05T23:26:32.859Z,3.50
2022-12-05T23:28:36.189Z,3.40
2022-12-05T23:30:39.643Z,3.40
2022-12-05T23:32:42.872Z,3.30
2022-12-05T23:34:46.079Z,3.30
2022-12-05T23:36:49.357Z,3.30
2022-12-05T23:38:52.639Z,3.20
2022-12-05T23:41:02.507Z,3.10
2022-12-05T23:43:07.206Z,3.10
2022-12-05T23:45:11.359Z,3.10
2022-12-05T23:47:14.795Z,3.10
2022-12-05T23:49:18.156Z,3.10
2022-12-05T23:51:25.792Z,3.10
2022-12-05T23:53:30.466Z,3.10
2022-12-05T23:55:35.547Z,3.10
2022-12-05T23:57:38.938Z,3.20
2022-12-05T23:59:43.661Z,3.20
